Preview of NWS' New Version of Forecast
This preview is not operational and should not be used for support decisions.

Terminal Aerodrome Forecast (TAF)

Issued by National Weather Service (NWS)

                            
000
FTUS42 KKEY 151720
TAFEYW
TAF
KEYW 151720Z 1518/1618 36010KT P6SM SCT028
      TEMPO 1518/1519 BKN025
     FM151900 35010KT P6SM SCT030=